Santo Andre, Brazil
Current Conditions -  °F | °C
As of 10:00 AM on Saturday 25 Oct 2014 (Local Time) from SBSP Reporting Station
Haze Haze  
Wind Chill: 66°   Ceiling: 700
Heat Index: 66°   Visibility: 2.5mi
Dew Point: 59°   Wind: 6mph
Humidity: 78%   Direction: 220°SW
Pressure: 30.09"   Gusts: NA
Location:  23.65°S, 46.53°W
Report Text: SBSP 251200Z 22005KT 4000 BR SCT004 OVC007 19/15 Q1019
Loading
Personal Weather Stations






























Interactive Weather Map
Tropical Storm Tracking
New forecast layout! Learn more

10-Day Weather Forecast

Advertisements
Track Severe Weather on mobile